Time;durP1;ratioP1;P1;durP2;ratioP2;P2;SDS_P1;SDS_P2;PMS_P1;PMS_P2;Temp;Humidity;BMP_temperature;BMP_pressure;BME280_temperature;BME280_humidity;BME280_pressure;Samples;Min_cycle;Max_cycle;Signal;HPM_P1;HPM_P2
2021/08/22 00:00:23;;;;;;;5.53;4.03;;;16.30;83.90;;;;;;5075390;28;20192;-84
2021/08/22 00:02:49;;;;;;;5.38;4.32;;;16.30;83.70;;;;;;5075564;28;20163;-84
2021/08/22 00:05:14;;;;;;;10.57;4.28;;;16.30;83.80;;;;;;5057451;28;20174;-84
2021/08/22 00:07:40;;;;;;;7.50;4.03;;;16.30;83.70;;;;;;5057374;28;20175;-84
2021/08/22 00:10:06;;;;;;;6.88;4.22;;;16.30;83.80;;;;;;5057123;28;20178;-84
2021/08/22 00:12:32;;;;;;;6.70;3.80;;;16.30;83.80;;;;;;5057377;28;20647;-84
2021/08/22 00:14:58;;;;;;;9.73;4.15;;;16.30;83.70;;;;;;5075005;28;20175;-84
2021/08/22 00:17:23;;;;;;;11.23;3.53;;;16.30;83.60;;;;;;5056886;28;20199;-84
2021/08/22 00:19:49;;;;;;;6.63;4.28;;;16.30;83.70;;;;;;5075106;28;20175;-84
2021/08/22 00:22:15;;;;;;;6.43;3.90;;;16.30;83.70;;;;;;5074824;28;20203;-84
2021/08/22 00:24:41;;;;;;;6.20;3.88;;;16.30;83.80;;;;;;5075052;28;20171;-84
2021/08/22 00:27:07;;;;;;;6.30;3.75;;;16.30;83.90;;;;;;5074883;28;20186;-84
2021/08/22 00:29:33;;;;;;;6.22;3.65;;;16.40;83.80;;;;;;5074980;28;20167;-84
2021/08/22 00:31:58;;;;;;;14.38;4.03;;;16.40;83.80;;;;;;5074718;28;20198;-84
2021/08/22 00:34:24;;;;;;;4.28;3.88;;;16.30;83.80;;;;;;5056860;28;20655;-84
2021/08/22 00:36:49;;;;;;;4.40;4.00;;;16.30;83.90;;;;;;5074587;28;20659;-84
2021/08/22 00:39:15;;;;;;;4.05;3.65;;;16.30;84.10;;;;;;5074690;28;20512;-84
2021/08/22 00:41:42;;;;;;;6.88;4.72;;;16.20;84.10;;;;;;5074513;28;20179;-84
2021/08/22 00:44:07;;;;;;;7.03;4.78;;;16.30;84.20;;;;;;5074576;28;20175;-84
2021/08/22 00:46:37;;;;;;;6.95;4.60;;;16.20;84.20;;;;;;5074522;28;20178;-83
2021/08/22 00:49:04;;;;;;;7.53;4.55;;;16.20;84.40;;;;;;5074578;28;20176;-84
2021/08/22 00:51:30;;;;;;;5.90;4.20;;;16.20;84.30;;;;;;5074695;28;20681;-84
2021/08/22 00:53:56;;;;;;;3.83;3.53;;;16.20;84.40;;;;;;5074495;28;20176;-84
2021/08/22 00:56:21;;;;;;;4.20;3.80;;;16.10;84.50;;;;;;5074387;28;20191;-84
2021/08/22 00:58:47;;;;;;;4.10;3.70;;;16.10;84.50;;;;;;5074171;28;20172;-84
2021/08/22 01:01:24;;;;;;;5.25;3.80;;;16.00;84.60;;;;;;5056337;28;20788;-84
2021/08/22 01:04:19;;;;;;;4.97;3.83;;;16.00;84.70;;;;;;5058938;28;20175;-84
2021/08/22 01:07:00;;;;;;;4.45;3.35;;;15.90;84.90;;;;;;5066101;28;20230;-84
2021/08/22 01:09:31;;;;;;;6.70;4.05;;;16.00;84.70;;;;;;5074294;28;20171;-84
2021/08/22 01:12:02;;;;;;;7.53;3.55;;;15.90;85.00;;;;;;5056138;28;20191;-84
2021/08/22 01:14:35;;;;;;;4.60;3.70;;;15.80;84.90;;;;;;5073924;28;20155;-84
2021/08/22 01:17:02;;;;;;;4.25;3.72;;;15.80;85.10;;;;;;5056121;28;20199;-84
2021/08/22 01:19:34;;;;;;;4.60;3.72;;;15.80;85.10;;;;;;5055911;28;20173;-84
2021/08/22 01:22:02;;;;;;;4.95;3.47;;;15.80;85.30;;;;;;5056401;28;20246;-83
2021/08/22 01:24:29;;;;;;;6.13;3.22;;;15.70;85.40;;;;;;5073882;28;20163;-84
2021/08/22 01:26:57;;;;;;;8.07;4.00;;;15.70;85.60;;;;;;5074105;28;20229;-84
2021/08/22 01:29:27;;;;;;;3.83;3.50;;;15.70;85.40;;;;;;5073187;28;20540;-84
2021/08/22 01:31:54;;;;;;;5.20;3.55;;;15.70;85.40;;;;;;5056410;28;20188;-84
2021/08/22 01:34:21;;;;;;;3.67;3.38;;;15.80;85.20;;;;;;5056356;28;20185;-84
2021/08/22 01:36:47;;;;;;;5.72;3.30;;;15.80;85.10;;;;;;5055646;28;20198;-84
2021/08/22 01:39:14;;;;;;;4.93;3.90;;;15.70;85.40;;;;;;5055673;28;20176;-84
2021/08/22 01:41:42;;;;;;;4.38;3.42;;;15.80;85.50;;;;;;5055352;28;20187;-84
2021/08/22 01:44:07;;;;;;;3.42;3.13;;;15.70;85.30;;;;;;5055654;28;20194;-83
2021/08/22 01:46:35;;;;;;;3.75;3.10;;;15.70;85.40;;;;;;5055610;28;20639;-84
2021/08/22 01:49:03;;;;;;;5.72;3.17;;;15.60;85.80;;;;;;5073406;28;20654;-84
2021/08/22 01:51:30;;;;;;;7.03;3.60;;;15.70;85.60;;;;;;5073598;28;20203;-83
2021/08/22 01:54:00;;;;;;;3.88;3.33;;;15.70;85.30;;;;;;5073478;28;20261;-83
2021/08/22 01:56:28;;;;;;;3.45;3.15;;;15.80;85.00;;;;;;5055494;28;20229;-83
2021/08/22 01:58:54;;;;;;;7.05;3.28;;;15.80;84.90;;;;;;5073329;28;20175;-83
2021/08/22 02:01:20;;;;;;;3.30;3.00;;;15.80;85.10;;;;;;5073373;28;20191;-84
2021/08/22 02:03:51;;;;;;;4.20;2.95;;;15.70;85.20;;;;;;5055605;28;20175;-83
2021/08/22 02:06:32;;;;;;;3.50;3.10;;;15.70;85.00;;;;;;5073382;28;20252;-83
2021/08/22 02:09:05;;;;;;;6.60;3.47;;;15.70;84.80;;;;;;5055577;28;20179;-84
2021/08/22 02:11:39;;;;;;;6.97;3.35;;;15.80;84.60;;;;;;5055383;28;20610;-84
2021/08/22 02:14:06;;;;;;;5.35;3.38;;;15.70;84.50;;;;;;5073617;28;20232;-84
2021/08/22 02:16:35;;;;;;;3.95;2.97;;;15.70;84.50;;;;;;5059957;28;20206;-84
2021/08/22 02:19:01;;;;;;;5.35;3.53;;;15.70;84.50;;;;;;5075820;28;20643;-84
2021/08/22 02:21:27;;;;;;;3.22;2.92;;;15.70;84.20;;;;;;5073326;28;20206;-84
2021/08/22 02:23:56;;;;;;;6.55;2.83;;;15.70;84.30;;;;;;5055314;28;20229;-83
2021/08/22 02:26:22;;;;;;;2.88;2.67;;;15.70;84.00;;;;;;5073227;28;20172;-83
2021/08/22 02:28:58;;;;;;;4.80;3.33;;;15.70;83.90;;;;;;5073270;28;20163;-84
2021/08/22 02:31:29;;;;;;;6.80;3.00;;;15.70;83.60;;;;;;5073214;28;20247;-84
2021/08/22 02:33:55;;;;;;;3.47;3.17;;;15.70;83.70;;;;;;5072964;28;20187;-84
2021/08/22 02:36:21;;;;;;;5.13;2.85;;;15.70;83.50;;;;;;5055113;28;20234;-84
2021/08/22 02:38:47;;;;;;;3.28;2.97;;;15.70;83.50;;;;;;5055151;28;20199;-83
2021/08/22 02:41:13;;;;;;;4.35;2.63;;;15.70;83.50;;;;;;5074729;28;20194;-84
2021/08/22 02:43:39;;;;;;;3.13;2.38;;;15.70;83.40;;;;;;5076886;28;20167;-84
2021/08/22 02:46:05;;;;;;;3.17;2.50;;;15.70;83.40;;;;;;5076884;28;20555;-83
2021/08/22 02:48:30;;;;;;;4.72;2.42;;;15.70;83.40;;;;;;5076989;28;20225;-84
2021/08/22 02:50:56;;;;;;;4.57;2.80;;;15.70;83.10;;;;;;5076633;28;20198;-83
2021/08/22 02:53:21;;;;;;;3.40;2.35;;;15.70;82.80;;;;;;5058795;28;20527;-84
2021/08/22 02:55:47;;;;;;;3.28;2.50;;;15.80;83.00;;;;;;5058866;28;20178;-83
2021/08/22 02:58:13;;;;;;;3.55;2.67;;;15.80;82.80;;;;;;5076789;28;20217;-84
2021/08/22 03:00:39;;;;;;;3.22;2.92;;;15.80;82.90;;;;;;5076585;28;20180;-84
2021/08/22 03:03:05;;;;;;;3.05;2.50;;;15.80;83.00;;;;;;5076644;28;20170;-83
2021/08/22 03:05:30;;;;;;;4.90;2.53;;;15.80;82.70;;;;;;5058660;28;20643;-83
2021/08/22 03:07:56;;;;;;;5.45;2.63;;;15.90;82.70;;;;;;5076527;28;20183;-83
2021/08/22 03:10:21;;;;;;;4.30;2.83;;;15.90;82.50;;;;;;5058473;28;20203;-83
2021/08/22 03:12:47;;;;;;;3.78;2.58;;;15.90;82.50;;;;;;5058505;28;20180;-83
2021/08/22 03:15:13;;;;;;;5.53;2.50;;;15.90;82.40;;;;;;5058311;28;20183;-84
2021/08/22 03:17:39;;;;;;;9.23;2.45;;;15.90;82.40;;;;;;5076212;28;20199;-83
2021/08/22 03:20:05;;;;;;;33.90;3.47;;;15.90;82.40;;;;;;5058303;28;20179;-83
2021/08/22 03:22:32;;;;;;;10.93;2.33;;;15.90;82.30;;;;;;5076162;28;20160;-83
2021/08/22 03:24:59;;;;;;;2.58;2.35;;;15.90;82.30;;;;;;5058202;28;20183;-83
2021/08/22 03:27:25;;;;;;;5.95;3.03;;;15.90;82.30;;;;;;5076341;28;20190;-84
2021/08/22 03:29:50;;;;;;;4.80;2.50;;;15.80;82.40;;;;;;5076127;28;20175;-83
2021/08/22 03:32:16;;;;;;;3.13;2.50;;;15.80;82.30;;;;;;5075958;28;20191;-84
2021/08/22 03:34:41;;;;;;;2.78;2.30;;;15.80;82.40;;;;;;5058103;28;20175;-83
2021/08/22 03:37:07;;;;;;;4.07;2.38;;;15.80;82.30;;;;;;5058114;28;20206;-83
2021/08/22 03:39:33;;;;;;;3.72;2.20;;;15.80;82.10;;;;;;5075708;28;20705;-84
2021/08/22 03:41:59;;;;;;;3.47;2.50;;;15.80;82.00;;;;;;5058025;28;20191;-83
2021/08/22 03:44:24;;;;;;;4.40;2.30;;;15.80;82.00;;;;;;5075753;28;20237;-83
2021/08/22 03:46:50;;;;;;;2.30;2.10;;;15.80;82.10;;;;;;5075529;28;20178;-83
2021/08/22 03:49:16;;;;;;;3.17;2.42;;;15.80;81.70;;;;;;5075998;28;20267;-83
2021/08/22 03:51:41;;;;;;;2.65;2.40;;;15.80;81.60;;;;;;5075130;28;20192;-84
2021/08/22 03:54:07;;;;;;;9.95;2.53;;;15.80;81.50;;;;;;5057711;28;20262;-83
2021/08/22 03:56:33;;;;;;;3.42;2.40;;;15.80;81.30;;;;;;5075746;28;20278;-83
2021/08/22 03:58:58;;;;;;;5.95;2.47;;;15.80;81.20;;;;;;5057641;28;20269;-83
2021/08/22 04:01:24;;;;;;;4.65;2.30;;;15.80;81.10;;;;;;5075552;28;20191;-83
2021/08/22 04:03:50;;;;;;;2.60;2.20;;;15.90;80.70;;;;;;5075503;28;20643;-83
2021/08/22 04:06:16;;;;;;;3.13;2.10;;;15.90;80.60;;;;;;5075813;28;20171;-83
2021/08/22 04:08:42;;;;;;;3.13;2.33;;;15.90;80.30;;;;;;5075334;28;20231;-84
2021/08/22 04:11:08;;;;;;;4.18;2.80;;;15.90;80.60;;;;;;5075350;28;20261;-83
2021/08/22 04:13:34;;;;;;;2.60;2.00;;;15.90;80.40;;;;;;5075287;28;20180;-83
2021/08/22 04:16:00;;;;;;;5.53;2.25;;;15.90;80.20;;;;;;5057420;28;20221;-83
2021/08/22 04:18:26;;;;;;;4.45;2.13;;;15.90;80.00;;;;;;5057216;28;20167;-83
2021/08/22 04:20:51;;;;;;;1.77;1.67;;;15.90;79.70;;;;;;5057512;28;20775;-83
2021/08/22 04:23:17;;;;;;;2.50;2.05;;;15.90;79.60;;;;;;5075145;28;20168;-83
2021/08/22 04:25:43;;;;;;;5.60;2.40;;;15.90;79.40;;;;;;5075484;28;20627;-83
2021/08/22 04:28:10;;;;;;;2.33;2.10;;;15.90;79.40;;;;;;5056974;28;20722;-83
2021/08/22 04:30:35;;;;;;;4.90;2.20;;;15.80;79.40;;;;;;5075167;28;20191;-83
2021/08/22 04:33:01;;;;;;;3.15;2.05;;;15.90;79.50;;;;;;5056999;28;20262;-83
2021/08/22 04:35:29;;;;;;;3.13;2.25;;;15.90;79.30;;;;;;5056931;28;20202;-83
2021/08/22 04:37:54;;;;;;;2.72;2.00;;;15.90;79.20;;;;;;5074500;28;20242;-83
2021/08/22 04:40:20;;;;;;;2.40;1.90;;;15.90;78.80;;;;;;5056883;28;20226;-83
2021/08/22 04:42:46;;;;;;;6.78;2.35;;;15.90;78.90;;;;;;5074963;28;20168;-84
2021/08/22 04:45:11;;;;;;;2.38;2.00;;;15.90;78.80;;;;;;5074452;28;20174;-84
2021/08/22 04:47:37;;;;;;;2.92;1.85;;;16.00;78.60;;;;;;5074371;28;20228;-83
2021/08/22 04:50:03;;;;;;;2.35;2.15;;;15.90;78.70;;;;;;5074512;28;20163;-83
2021/08/22 04:52:29;;;;;;;2.63;2.15;;;16.00;78.70;;;;;;5074358;28;20176;-83
2021/08/22 04:54:55;;;;;;;2.78;2.17;;;16.00;78.80;;;;;;5057053;28;20249;-83
2021/08/22 04:57:21;;;;;;;2.53;1.67;;;16.00;78.80;;;;;;5074412;28;20199;-84
2021/08/22 04:59:47;;;;;;;2.42;1.85;;;16.00;79.10;;;;;;5074197;28;20701;-84
2021/08/22 05:02:13;;;;;;;2.30;1.92;;;16.00;79.00;;;;;;5056364;28;20195;-83
2021/08/22 05:04:38;;;;;;;3.00;2.20;;;16.00;78.70;;;;;;5073509;28;20214;-84
2021/08/22 05:07:05;;;;;;;3.83;2.13;;;16.00;79.10;;;;;;5074090;28;20176;-83
2021/08/22 05:09:31;;;;;;;2.13;1.77;;;16.00;78.90;;;;;;5056242;28;20207;-83
2021/08/22 05:11:59;;;;;;;3.65;1.98;;;16.00;79.20;;;;;;5074327;28;20229;-83
2021/08/22 05:14:26;;;;;;;3.45;2.10;;;16.00;79.00;;;;;;5056197;28;20562;-83
2021/08/22 05:16:51;;;;;;;3.80;1.98;;;16.00;79.40;;;;;;5056015;28;20203;-83
2021/08/22 05:19:17;;;;;;;5.65;2.13;;;16.00;79.60;;;;;;5056092;28;20172;-83
2021/08/22 05:21:42;;;;;;;3.38;2.22;;;16.00;79.60;;;;;;5073617;28;20207;-84
2021/08/22 05:24:08;;;;;;;2.53;1.90;;;16.00;79.80;;;;;;5055876;28;20171;-84
2021/08/22 05:26:34;;;;;;;3.28;1.75;;;16.00;79.60;;;;;;5056058;28;20548;-85
2021/08/22 05:28:59;;;;;;;2.17;1.88;;;16.00;79.80;;;;;;5056155;28;20183;-84
2021/08/22 05:31:25;;;;;;;4.20;2.20;;;16.00;79.70;;;;;;5055848;28;20689;-84
2021/08/22 05:33:51;;;;;;;3.75;1.88;;;16.00;79.80;;;;;;5073741;28;20175;-84
2021/08/22 05:36:19;;;;;;;2.83;1.83;;;16.10;79.00;;;;;;5073744;28;20597;-83
2021/08/22 05:38:45;;;;;;;2.97;1.95;;;16.10;79.10;;;;;;5055699;28;20175;-84
2021/08/22 05:41:11;;;;;;;5.25;1.90;;;16.20;79.00;;;;;;5073579;28;20274;-83
2021/08/22 05:43:37;;;;;;;2.20;1.80;;;16.20;78.40;;;;;;5055646;28;20259;-84
2021/08/22 05:46:02;;;;;;;2.85;1.90;;;16.30;78.60;;;;;;5073575;28;20197;-84
2021/08/22 05:48:28;;;;;;;2.20;1.85;;;16.30;78.90;;;;;;5055534;28;20221;-84
2021/08/22 05:50:53;;;;;;;8.70;2.53;;;16.20;78.50;;;;;;5073484;28;20191;-86
2021/08/22 05:53:19;;;;;;;3.38;2.00;;;16.20;78.50;;;;;;5073602;28;20214;-86
2021/08/22 05:55:45;;;;;;;2.38;1.90;;;16.20;78.40;;;;;;5073382;28;20175;-86
2021/08/22 05:58:10;;;;;;;3.67;2.13;;;16.20;78.00;;;;;;5055324;28;20207;-86
2021/08/22 06:00:37;;;;;;;6.63;1.63;;;16.30;77.60;;;;;;5073541;28;20187;-86
2021/08/22 06:03:03;;;;;;;3.08;2.10;;;16.30;78.00;;;;;;5073374;28;20168;-86
2021/08/22 06:05:29;;;;;;;3.80;2.10;;;16.20;78.20;;;;;;5073377;28;20256;-86
2021/08/22 06:07:55;;;;;;;2.13;1.63;;;16.30;78.20;;;;;;5073271;28;20708;-86
2021/08/22 06:10:20;;;;;;;1.95;1.80;;;16.30;77.70;;;;;;5073246;28;20187;-86
2021/08/22 06:12:46;;;;;;;2.08;1.88;;;16.30;78.00;;;;;;5073193;28;20654;-86
2021/08/22 06:15:12;;;;;;;5.68;1.80;;;16.30;77.60;;;;;;5057202;28;20266;-86
2021/08/22 06:17:38;;;;;;;4.65;2.13;;;16.30;77.50;;;;;;5077681;28;20710;-86
2021/08/22 06:20:05;;;;;;;2.75;1.77;;;16.30;77.60;;;;;;5077256;28;20171;-86
2021/08/22 06:22:31;;;;;;;5.22;2.35;;;16.30;77.80;;;;;;5059403;28;20217;-86
2021/08/22 06:24:57;;;;;;;2.58;1.80;;;16.30;77.90;;;;;;5077232;28;20175;-86
2021/08/22 06:27:22;;;;;;;4.97;1.88;;;16.30;77.90;;;;;;5077358;28;20175;-86
2021/08/22 06:29:48;;;;;;;2.78;1.88;;;16.20;78.50;;;;;;5059130;28;20217;-86
2021/08/22 06:32:14;;;;;;;4.03;1.70;;;16.30;78.10;;;;;;5076886;28;20191;-86
2021/08/22 06:34:39;;;;;;;3.10;1.95;;;16.20;78.00;;;;;;5059214;28;20175;-85
2021/08/22 06:37:05;;;;;;;1.75;1.60;;;16.30;77.90;;;;;;5058999;28;20207;-85
2021/08/22 06:39:32;;;;;;;2.10;1.58;;;16.30;78.40;;;;;;5076994;28;20546;-85
2021/08/22 06:41:58;;;;;;;6.15;1.70;;;16.20;78.20;;;;;;5076723;28;20183;-86
2021/08/22 06:44:23;;;;;;;8.63;2.10;;;16.30;78.00;;;;;;5058939;28;20681;-86
2021/08/22 06:46:49;;;;;;;3.65;1.90;;;16.20;78.00;;;;;;5076899;28;20196;-86
2021/08/22 06:49:15;;;;;;;3.97;2.20;;;16.30;78.50;;;;;;5058683;28;20635;-86
2021/08/22 06:51:40;;;;;;;4.90;2.05;;;16.20;78.80;;;;;;5076706;28;20194;-86
2021/08/22 06:54:06;;;;;;;2.05;1.90;;;16.20;79.30;;;;;;5058824;28;20547;-84
2021/08/22 06:56:32;;;;;;;2.88;1.80;;;16.20;79.70;;;;;;5058687;28;20207;-84
2021/08/22 06:58:58;;;;;;;2.55;1.75;;;16.30;78.90;;;;;;5058769;28;20647;-83
2021/08/22 07:01:24;;;;;;;3.67;1.77;;;16.40;78.70;;;;;;5058699;28;20222;-84
2021/08/22 07:03:49;;;;;;;3.88;1.88;;;16.50;78.50;;;;;;5076536;28;20201;-84
2021/08/22 07:06:16;;;;;;;5.28;2.28;;;16.50;78.10;;;;;;5058706;28;20183;-84
2021/08/22 07:08:41;;;;;;;2.78;2.25;;;16.60;78.40;;;;;;5076475;28;20654;-83
2021/08/22 07:11:07;;;;;;;2.10;1.90;;;16.60;78.50;;;;;;5059300;28;20195;-85
2021/08/22 07:13:33;;;;;;;2.65;1.75;;;16.60;78.40;;;;;;5078222;28;20175;-85
2021/08/22 07:15:59;;;;;;;3.83;2.30;;;16.70;77.50;;;;;;5077334;28;20171;-84
2021/08/22 07:18:24;;;;;;;2.95;2.30;;;16.70;77.30;;;;;;5058416;28;20175;-83
2021/08/22 07:20:50;;;;;;;3.83;1.63;;;16.80;77.60;;;;;;5058448;28;20211;-83
2021/08/22 07:23:16;;;;;;;2.78;1.65;;;16.80;77.00;;;;;;5058437;28;20597;-83
2021/08/22 07:25:41;;;;;;;5.22;1.70;;;16.90;77.50;;;;;;5058271;28;20262;-83
2021/08/22 07:28:07;;;;;;;2.67;1.80;;;16.90;77.40;;;;;;5075529;28;20178;-83
2021/08/22 07:30:33;;;;;;;2.38;1.70;;;17.00;76.90;;;;;;5058317;28;20234;-83
2021/08/22 07:33:01;;;;;;;2.08;1.88;;;17.00;77.00;;;;;;5076531;28;20674;-83
2021/08/22 07:35:27;;;;;;;2.08;1.75;;;17.00;76.80;;;;;;5058265;28;20266;-83
2021/08/22 07:37:52;;;;;;;4.95;2.28;;;17.00;77.00;;;;;;5057841;28;20299;-83
2021/08/22 07:40:18;;;;;;;1.83;1.52;;;17.00;76.90;;;;;;5075967;28;20187;-83
2021/08/22 07:42:44;;;;;;;3.53;1.80;;;17.10;77.50;;;;;;5058047;28;20167;-83
2021/08/22 07:45:10;;;;;;;4.00;1.55;;;17.00;77.10;;;;;;5075881;28;20250;-83
2021/08/22 07:47:35;;;;;;;1.73;1.63;;;17.00;76.80;;;;;;5058106;28;20274;-83
2021/08/22 07:50:01;;;;;;;3.75;2.00;;;17.00;77.10;;;;;;5075888;28;20199;-83
2021/08/22 07:52:27;;;;;;;2.75;1.80;;;17.10;77.10;;;;;;5075792;28;20205;-83
2021/08/22 07:54:52;;;;;;;4.60;1.73;;;17.10;77.50;;;;;;5057840;28;20183;-84
2021/08/22 07:57:19;;;;;;;1.73;1.63;;;17.10;77.30;;;;;;5075613;28;20210;-83
2021/08/22 07:59:45;;;;;;;2.63;1.98;;;17.10;76.60;;;;;;5075832;28;20179;-84
2021/08/22 08:02:10;;;;;;;1.70;1.58;;;17.20;77.10;;;;;;5057685;28;20188;-84
2021/08/22 08:04:36;;;;;;;3.83;1.63;;;17.20;77.30;;;;;;5075903;28;20168;-83
2021/08/22 08:07:02;;;;;;;2.20;1.80;;;17.20;77.10;;;;;;5057595;28;20270;-83
2021/08/22 08:09:27;;;;;;;2.25;1.83;;;17.20;77.00;;;;;;5075196;28;20642;-84
2021/08/22 08:11:56;;;;;;;3.15;1.80;;;17.20;76.30;;;;;;5057682;28;20282;-84
2021/08/22 08:14:22;;;;;;;3.05;2.00;;;17.20;76.00;;;;;;5075099;28;20170;-84
2021/08/22 08:16:48;;;;;;;4.25;2.00;;;17.20;75.40;;;;;;5075560;28;20191;-83
2021/08/22 08:19:14;;;;;;;2.05;1.85;;;17.30;76.10;;;;;;5057069;28;20213;-84
2021/08/22 08:21:39;;;;;;;2.67;2.00;;;17.20;76.20;;;;;;5075073;28;20234;-84
2021/08/22 08:24:05;;;;;;;3.22;2.15;;;17.20;76.00;;;;;;5075135;28;20171;-84
2021/08/22 08:26:30;;;;;;;4.13;2.15;;;17.30;75.10;;;;;;5056950;28;20176;-84
2021/08/22 08:28:56;;;;;;;3.92;2.13;;;17.30;74.90;;;;;;5075088;28;20221;-84
2021/08/22 08:31:22;;;;;;;3.42;1.83;;;17.40;74.00;;;;;;5057069;28;20195;-84
2021/08/22 08:33:47;;;;;;;1.92;1.80;;;17.40;74.60;;;;;;5074682;28;20167;-84
2021/08/22 08:36:13;;;;;;;5.65;2.10;;;17.40;75.00;;;;;;5056707;28;20574;-84
2021/08/22 08:38:38;;;;;;;2.55;1.90;;;17.50;75.50;;;;;;5074493;28;20172;-84
2021/08/22 08:41:04;;;;;;;4.53;2.08;;;17.50;74.40;;;;;;5074576;28;20198;-84
2021/08/22 08:43:30;;;;;;;4.30;2.00;;;17.60;74.50;;;;;;5074663;28;20174;-84
2021/08/22 08:45:57;;;;;;;1.88;1.70;;;17.60;74.50;;;;;;5056671;28;20167;-84
2021/08/22 08:48:25;;;;;;;5.03;2.20;;;17.60;73.90;;;;;;5056675;28;20179;-85
2021/08/22 08:51:12;;;;;;;3.10;2.10;;;17.60;73.40;;;;;;5056431;28;20286;-84
2021/08/22 08:53:48;;;;;;;3.47;2.38;;;17.60;73.80;;;;;;5056643;28;20167;-84
2021/08/22 08:56:15;;;;;;;3.45;1.90;;;17.60;73.70;;;;;;5074386;28;20395;-84
2021/08/22 08:58:42;;;;;;;2.33;2.05;;;17.60;73.80;;;;;;5057212;28;20537;-84
2021/08/22 09:01:07;;;;;;;4.38;1.80;;;17.70;74.10;;;;;;5074152;28;20188;-84
2021/08/22 09:03:36;;;;;;;4.25;1.70;;;17.70;74.20;;;;;;5074439;28;20246;-84
2021/08/22 09:06:04;;;;;;;3.28;2.00;;;17.70;73.90;;;;;;5074168;28;20175;-84
2021/08/22 09:09:07;;;;;;;3.75;2.03;;;17.70;74.30;;;;;;5056265;28;20176;-84
2021/08/22 09:12:10;;;;;;;2.03;1.73;;;17.80;74.00;;;;;;5074090;28;20179;-84
2021/08/22 09:15:13;;;;;;;2.15;1.60;;;17.80;74.60;;;;;;5074377;28;20536;-84
2021/08/22 09:18:09;;;;;;;2.20;1.70;;;17.80;73.30;;;;;;5074049;28;20214;-83
2021/08/22 09:20:53;;;;;;;5.53;2.22;;;17.80;72.90;;;;;;5055929;28;20222;-84
2021/08/22 09:23:40;;;;;;;3.30;2.30;;;17.80;72.40;;;;;;5074175;28;20155;-84
2021/08/22 09:26:40;;;;;;;2.72;1.80;;;17.80;72.00;;;;;;5056160;28;20164;-84
2021/08/22 09:29:43;;;;;;;2.30;1.92;;;17.80;72.30;;;;;;5073778;28;20163;-83
2021/08/22 09:33:02;;;;;;;2.28;1.80;;;17.80;72.50;;;;;;5055631;28;20199;-84
2021/08/22 09:36:05;;;;;;;4.95;2.10;;;17.80;72.70;;;;;;5055798;28;20163;-84
2021/08/22 09:39:15;;;;;;;4.85;1.65;;;17.80;72.70;;;;;;5074004;28;20646;-85
2021/08/22 09:42:18;;;;;;;8.88;4.35;;;17.90;72.40;;;;;;5055566;28;20203;-84
2021/08/22 09:44:48;;;;;;;2.20;1.83;;;18.00;72.80;;;;;;5073778;28;20171;-85
2021/08/22 09:47:52;;;;;;;4.43;1.60;;;18.10;72.60;;;;;;5055605;28;20183;-84
2021/08/22 09:51:02;;;;;;;5.20;1.60;;;18.10;71.80;;;;;;5054792;28;20194;-85
2021/08/22 09:53:55;;;;;;;2.55;1.77;;;18.20;71.50;;;;;;5073381;28;20175;-84
2021/08/22 09:56:39;;;;;;;1.98;1.60;;;18.20;72.60;;;;;;5055395;28;20192;-85
2021/08/22 09:59:41;;;;;;;5.80;2.30;;;18.20;72.40;;;;;;5074149;28;20570;-84
2021/08/22 10:02:31;;;;;;;6.63;2.20;;;18.20;71.90;;;;;;5073228;28;20187;-84
2021/08/22 10:05:09;;;;;;;3.75;1.95;;;18.10;71.70;;;;;;5055355;28;20189;-83
2021/08/22 10:08:02;;;;;;;3.85;2.30;;;18.10;73.00;;;;;;5055672;28;20213;-83
2021/08/22 10:10:33;;;;;;;2.60;2.40;;;18.00;75.70;;;;;;5073450;28;20194;-83
2021/08/22 10:12:59;;;;;;;2.78;2.20;;;17.80;75.80;;;;;;5055623;28;20193;-83
2021/08/22 10:15:25;;;;;;;3.47;2.38;;;17.80;77.70;;;;;;5073477;28;20738;-83
2021/08/22 10:17:50;;;;;;;3.50;2.20;;;17.60;77.70;;;;;;5073946;28;20231;-83
2021/08/22 10:20:18;;;;;;;2.95;2.45;;;17.50;78.40;;;;;;5073312;28;20294;-84
2021/08/22 10:22:44;;;;;;;4.03;3.05;;;17.50;79.70;;;;;;5073352;28;20280;-84
2021/08/22 10:25:13;;;;;;;3.70;2.20;;;17.40;79.70;;;;;;5055282;28;20167;-83
2021/08/22 10:27:44;;;;;;;2.85;2.55;;;17.20;79.70;;;;;;5055688;28;20267;-83
2021/08/22 10:30:14;;;;;;;6.30;3.00;;;17.20;80.90;;;;;;5073567;28;20190;-84
2021/08/22 10:33:12;;;;;;;5.03;2.92;;;17.00;82.30;;;;;;5073489;28;20159;-84
2021/08/22 10:35:38;;;;;;;2.97;2.60;;;16.90;82.90;;;;;;5011973;28;20655;-84
2021/08/22 10:38:26;;;;;;;10.00;2.33;;;16.90;82.70;;;;;;5055122;28;20231;-84
2021/08/22 10:40:53;;;;;;;5.38;2.78;;;16.90;83.70;;;;;;5055070;28;20240;-84
2021/08/22 10:43:18;;;;;;;5.93;2.75;;;17.00;84.10;;;;;;5072929;28;20172;-84
2021/08/22 10:45:52;;;;;;;6.40;3.13;;;17.10;84.70;;;;;;5073208;28;20180;-84
2021/08/22 10:48:23;;;;;;;6.07;3.35;;;17.10;85.20;;;;;;5073081;28;20187;-84
2021/08/22 10:51:12;;;;;;;5.65;3.10;;;17.10;85.00;;;;;;5073123;28;20195;-84
2021/08/22 10:53:40;;;;;;;4.25;3.15;;;17.10;84.90;;;;;;5062135;28;20205;-84
2021/08/22 10:56:21;;;;;;;3.33;2.97;;;17.00;85.20;;;;;;5054749;28;20199;-84
2021/08/22 10:58:59;;;;;;;6.10;4.10;;;16.90;85.90;;;;;;5072762;28;20581;-84
2021/08/22 11:01:26;;;;;;;6.13;3.30;;;16.80;86.10;;;;;;5055237;28;20209;-84
2021/08/22 11:04:19;;;;;;;8.50;3.38;;;16.80;86.40;;;;;;5058382;28;20221;-84
2021/08/22 11:07:02;;;;;;;5.40;3.28;;;16.70;86.50;;;;;;5058466;28;20193;-84
2021/08/22 11:09:44;;;;;;;6.30;3.20;;;16.60;86.90;;;;;;5076433;28;20171;-84
2021/08/22 11:12:27;;;;;;;4.00;3.53;;;16.50;86.80;;;;;;5076386;28;20187;-85
2021/08/22 11:14:54;;;;;;;4.75;3.42;;;16.30;87.40;;;;;;5058295;28;20179;-84
2021/08/22 11:17:20;;;;;;;5.43;3.47;;;16.20;88.00;;;;;;5058093;28;20201;-84
2021/08/22 11:19:46;;;;;;;4.15;3.13;;;16.20;88.50;;;;;;5076255;28;20171;-84
2021/08/22 11:22:28;;;;;;;6.05;3.70;;;16.10;88.40;;;;;;5057973;28;20252;-84
2021/08/22 11:24:58;;;;;;;8.77;4.60;;;16.10;88.90;;;;;;5076415;28;20716;-84
2021/08/22 11:27:29;;;;;;;4.63;3.92;;;16.20;89.30;;;;;;5076323;28;20213;-84
2021/08/22 11:30:03;;;;;;;4.50;3.42;;;16.20;89.30;;;;;;5058049;28;20215;-84
2021/08/22 11:32:29;;;;;;;4.95;3.63;;;16.20;89.00;;;;;;5075968;28;20590;-85
2021/08/22 11:35:08;;;;;;;3.30;3.00;;;16.10;88.70;;;;;;5075975;28;20171;-84
2021/08/22 11:37:33;;;;;;;4.43;2.85;;;16.20;88.10;;;;;;5057777;28;20666;-85
2021/08/22 11:40:05;;;;;;;6.65;3.67;;;16.10;88.10;;;;;;5057866;28;20233;-84
2021/08/22 11:42:32;;;;;;;4.03;3.60;;;16.20;87.80;;;;;;5057826;28;20623;-86
2021/08/22 11:45:13;;;;;;;8.20;3.42;;;16.20;88.40;;;;;;5058007;28;20171;-86
2021/08/22 11:47:39;;;;;;;4.88;3.22;;;16.30;88.30;;;;;;5075589;28;20178;-86
2021/08/22 11:50:08;;;;;;;3.30;3.00;;;16.30;88.20;;;;;;5075657;28;20544;-86
2021/08/22 11:52:35;;;;;;;7.05;3.35;;;16.20;88.00;;;;;;5057689;28;20597;-86
2021/08/22 11:55:04;;;;;;;3.95;3.17;;;16.30;88.30;;;;;;5075898;28;20213;-86
2021/08/22 11:57:29;;;;;;;4.97;3.30;;;16.30;88.30;;;;;;5057663;28;20230;-86
2021/08/22 12:00:03;;;;;;;5.15;3.47;;;16.30;88.30;;;;;;5075690;28;20632;-86
2021/08/22 12:02:29;;;;;;;4.07;3.67;;;16.30;88.90;;;;;;5057628;28;20221;-86
2021/08/22 12:05:18;;;;;;;5.95;4.03;;;16.30;88.90;;;;;;5057541;28;20523;-86
2021/08/22 12:07:45;;;;;;;6.70;3.67;;;16.30;88.70;;;;;;5057573;28;20536;-86
2021/08/22 12:10:26;;;;;;;5.18;3.40;;;16.30;88.30;;;;;;5057387;28;20190;-86
2021/08/22 12:12:54;;;;;;;6.50;3.50;;;16.30;88.60;;;;;;5057757;28;20221;-86
2021/08/22 12:15:30;;;;;;;4.40;3.90;;;16.40;89.00;;;;;;5057249;28;20171;-86
2021/08/22 12:18:17;;;;;;;5.68;3.55;;;16.30;89.20;;;;;;5057131;28;20194;-86
2021/08/22 12:20:44;;;;;;;6.63;3.80;;;16.40;88.80;;;;;;5056959;28;20298;-86
2021/08/22 12:23:11;;;;;;;4.70;3.60;;;16.30;87.80;;;;;;5057059;28;20642;-86
2021/08/22 12:25:40;;;;;;;8.52;3.58;;;16.20;88.50;;;;;;5057050;28;20179;-86
2021/08/22 12:28:29;;;;;;;3.90;3.40;;;16.20;88.50;;;;;;5056838;28;20179;-86
2021/08/22 12:31:09;;;;;;;7.15;3.35;;;16.20;88.50;;;;;;5074848;28;20199;-87
2021/08/22 12:33:42;;;;;;;5.80;3.30;;;16.20;88.50;;;;;;5056924;28;20263;-86
2021/08/22 12:36:12;;;;;;;5.20;3.47;;;16.20;88.60;;;;;;5056800;28;20179;-86
2021/08/22 12:38:51;;;;;;;10.95;3.78;;;16.20;88.70;;;;;;5056832;28;20173;-85
2021/08/22 12:41:38;;;;;;;4.03;3.28;;;16.30;89.20;;;;;;5074646;28;20195;-85
2021/08/22 12:44:06;;;;;;;4.80;3.30;;;16.20;89.00;;;;;;5056841;28;20213;-85
2021/08/22 12:46:34;;;;;;;4.25;3.63;;;16.20;88.60;;;;;;5056489;28;20271;-85
2021/08/22 12:49:00;;;;;;;5.18;3.50;;;16.30;89.00;;;;;;5074280;28;20644;-85
2021/08/22 12:51:27;;;;;;;9.98;4.30;;;16.30;89.00;;;;;;5056302;28;20219;-84
2021/08/22 12:53:53;;;;;;;10.98;4.13;;;16.30;88.80;;;;;;5074216;28;20166;-85
2021/08/22 12:56:21;;;;;;;5.25;3.75;;;16.20;88.60;;;;;;5074179;28;20163;-85
2021/08/22 12:58:49;;;;;;;4.85;3.55;;;16.30;88.90;;;;;;5074141;28;20171;-85